Main page
METAR-TAF:

METAR-TAF

Airports :

Simón Bolívar International Airport

Caracas, Venezuela

latitude: 10-36N, longitude: 066-59W, elevation: 43 m

Current weather observation

The report was made 3 hours and 30 minutes ago, at 03:00 UTC
Wind 2 kt from the East
Temperature 24°C
Humidity 89%
Pressure 1011 hPa
Visibility 10 km or more
Scattered clouds at a height of 1600 ft

METAR: SVMI 210300Z 09002KT 9999 SCT016 24/22 Q1011

Time: 02:30 (06:30 UTC)

Forecast

The report was made 3 hours and 30 minutes ago, at 03:00 UTC
Forecast valid from 21 at 06 UTC to 22 at 06 UTC
Wind 3 kt from the East
Visibility 10 km or more
Scattered clouds at a height of 1600 ft
Temporary
from 21 at 06 UTC to 21 at 10 UTC
Wind kt from the North
Visibility: 8000 m
Broken clouds at a height of 1300 ft
drizzle
From 21 at 1100 UTC
Wind kt from the North
Visibility 10 km or more
Scattered clouds at a height of 1600 ft

TAF: SVMI 210300Z 2106/2206 09003KT 9999 SCT016 TX32/18ZTN23/08Z TEMPO 2106/2110 00000KT 8000 DZ BKN013 FM211100 00000KT 9999 SCT016

Weather observations and forecasts of more than 4000 airports (METAR and TAF reports).

The available stations are represented by yellow and red dots on the map.

Hover mouse over dot to see the name of the station.

Then click to see weather observations and forecasts.

To change the map : click on the green buttons with a black cross to zoom in, on the green button with a dash to zoom out, or on the green arrows for adjacent maps.


METAR-TAF: